Almaty, Kazakhstan
Current Conditions -  °F | °C
As of 6:00 AM on Saturday 25 Oct 2014 (Local Time) from UAAA Reporting Station
Moderate Fog Moderate Fog  
Wind Chill: 41°   Ceiling: 100
Heat Index: 45°   Visibility: 0.18mi
Dew Point: 43°   Wind: 7mph
Humidity: 93%   Direction: 230°SW
Pressure: 29.94"   Gusts: NA
Location:  43.32°N, 76.92°E
Report Text: UAAA 250000Z 23003MPS 190V250 0300 R05L/0900N R05R/1300U FGVV001 07/06 Q1014 R05L/CLRD65 R05R/1///60 NOSIG RMK QBB050
Loading
Personal Weather Stations






























Interactive Weather Map
Tropical Storm Tracking
New forecast layout! Learn more

10-Day Weather Forecast

Advertisements
Track Severe Weather on mobile